Impacts TAF Board INFO
FOR SITUATIONAL AWARENESS. NOT TO BE USED FOR FLIGHT PLANNING PURPOSES.
IDs:

KATL - Atlanta/Hartsfield-J, GA, US

Issued at 1735 UTC 23 Jan 2018
Updated at 1811 UTC 23 Jan 2018
Potential Impact None Slight Moderate High
Time<<24/19Z 24/20Z 24/21Z 24/22Z 24/23Z 25/00Z 25/01Z 25/02Z 25/03Z 25/04Z 25/05Z 25/06Z 25/07Z
Type PRVL PRVL PRVL PRVL PRVL
VIS >6 >6 >6 >6 >6
CIG -- -- -- -- --
Cover FEW FEW FEW FEW SKC
FltCat VFR VFR VFR VFR VFR
WX -- -- -- -- --
WDir 300 300 300 300 310
WSpd 12 12 12 12 10
WGst 20 20 20 20 --

Raw TAF
KATL 231735Z 2318/2424 30013G23KT P6SM FEW250
  FM240000 30010KT P6SM FEW250
  FM241200 31007KT P6SM FEW250
  FM241700 30012G20KT P6SM FEW250
  FM242300 31010KT P6SM SKC


METAR Board
Radar Display
Forecast Discussion

FOR SITUATIONAL AWARENESS. NOT TO BE USED FOR FLIGHT PLANNING PURPOSES.